MPTO/PTY METAR and TAF weather

Enter ICAO airport designator
Station Type Date Time Source
MPTO METAR 2020/07/12 18:00 UTC NOAA

MPTO 121800Z 16005KT 9999 SCT016TCU BKN080 29/24 Q1012 NOSIG


Station Type Date Time Source
MPTO Decoded METAR 2020/07/12 18:00 UTC NOAA

Tocumen, Panama (MPTO) 09-03N 079-22W
Jul 12, 2020 - 02:00 PM EDT / 2020.07.12 1800 UTC
Wind: from the SSE (160 degrees) at 6 MPH (5 KT):0
Visibility: greater than 7 mile(s):0
Sky conditions: mostly cloudy
Weather: Towering cumulus clouds observed
Temperature: 84 F (29 C)
Dew Point: 75 F (24 C)
Relative Humidity: 74%
Pressure (altimeter): 29.88 in. Hg (1012 hPa)
ob: MPTO 121800Z 16005KT 9999 SCT016TCU BKN080 29/24 Q1012 NOSIG
cycle: 18

Station Type Date Time Source
MPTO TAF 2020/07/12 18:12 UTC NOAA

TAF MPTO 121700Z 1218/1324 02006KT 9999 SCT018 SCT090
TEMPO 1218/1221 14006KT PROB30
TEMPO 1221/1224 6000 TSRA SCT015CB BKN080
TEMPO 1308/1312 00000KT

Example: see airport list